SBSP/CGH METAR and TAF weather

Enter ICAO airport designator
Station Type Date Time Source
SBSP METAR 2019/08/26 08:00 UTC NOAA

SBSP 260800Z AUTO 09006KT 040V120 9999 FEW019 14/09 Q1026


Station Type Date Time Source
SBSP Decoded METAR 2019/08/26 08:00 UTC NOAA

Station name not available
Aug 26, 2019 - 04:00 AM EDT / 2019.08.26 0800 UTC
Wind: from the E (090 degrees) at 7 MPH (6 KT) (direction variable):0
Visibility: greater than 7 mile(s):0
Sky conditions: mostly clear
Temperature: 57 F (14 C)
Dew Point: 48 F (9 C)
Relative Humidity: 71%
Pressure (altimeter): 30.30 in. Hg (1026 hPa)
ob: SBSP 260800Z AUTO 09006KT 040V120 9999 FEW019 14/09 Q1026
cycle: 8

Station Type Date Time Source
SBSP TAF 2019/08/26 06:33 UTC NOAA

TAF TAF SBSP 260130Z 2606/2618 16008KT 9999 BKN010 TN13/2608Z TX25/2617Z
BECMG 2600/2602 12005KT 8000 SCT010 BKN030 PROB30 2608/2611 07005KT BKN008
BECMG 2612/2614 9999 BKN020
BECMG 2614/2616 15008KT SCT030
RMK PGL

Example: see airport list